sensor_id;sensor_type;location;lat;lon;timestamp;P1;durP1;ratioP1;P2;durP2;ratioP2
7969;SDS011;4030;52.362;9.206;2023-10-13T00:00:25;5.90;;;4.35;;
7969;SDS011;4030;52.362;9.206;2023-10-13T00:02:55;5.10;;;4.60;;
7969;SDS011;4030;52.362;9.206;2023-10-13T00:05:26;5.53;;;5.03;;
7969;SDS011;4030;52.362;9.206;2023-10-13T00:08:01;6.13;;;4.97;;
7969;SDS011;4030;52.362;9.206;2023-10-13T00:10:29;5.72;;;4.82;;
7969;SDS011;4030;52.362;9.206;2023-10-13T00:12:55;6.32;;;5.43;;
7969;SDS011;4030;52.362;9.206;2023-10-13T00:15:31;5.75;;;5.25;;
7969;SDS011;4030;52.362;9.206;2023-10-13T00:18:04;6.47;;;5.88;;
7969;SDS011;4030;52.362;9.206;2023-10-13T00:20:37;6.65;;;5.90;;
7969;SDS011;4030;52.362;9.206;2023-10-13T00:23:05;6.20;;;5.68;;
7969;SDS011;4030;52.362;9.206;2023-10-13T00:25:31;7.28;;;6.40;;
7969;SDS011;4030;52.362;9.206;2023-10-13T00:28:04;7.05;;;6.35;;
7969;SDS011;4030;52.362;9.206;2023-10-13T00:30:33;7.88;;;7.07;;
7969;SDS011;4030;52.362;9.206;2023-10-13T00:32:59;7.57;;;6.88;;
7969;SDS011;4030;52.362;9.206;2023-10-13T00:35:28;7.57;;;6.60;;
7969;SDS011;4030;52.362;9.206;2023-10-13T00:38:01;8.05;;;7.25;;
7969;SDS011;4030;52.362;9.206;2023-10-13T00:40:44;7.75;;;6.97;;
7969;SDS011;4030;52.362;9.206;2023-10-13T00:43:17;8.38;;;7.63;;
7969;SDS011;4030;52.362;9.206;2023-10-13T00:45:54;9.35;;;7.40;;
7969;SDS011;4030;52.362;9.206;2023-10-13T00:48:32;8.40;;;7.68;;
7969;SDS011;4030;52.362;9.206;2023-10-13T00:51:11;9.20;;;8.10;;
7969;SDS011;4030;52.362;9.206;2023-10-13T00:53:47;9.45;;;8.55;;
7969;SDS011;4030;52.362;9.206;2023-10-13T00:56:14;9.82;;;8.77;;
7969;SDS011;4030;52.362;9.206;2023-10-13T00:58:52;8.93;;;8.05;;
7969;SDS011;4030;52.362;9.206;2023-10-13T01:01:23;9.50;;;8.60;;
7969;SDS011;4030;52.362;9.206;2023-10-13T01:03:57;9.90;;;9.00;;
7969;SDS011;4030;52.362;9.206;2023-10-13T01:06:28;9.55;;;8.65;;
7969;SDS011;4030;52.362;9.206;2023-10-13T01:14:11;10.15;;;9.15;;
7969;SDS011;4030;52.362;9.206;2023-10-13T01:16:40;10.23;;;9.40;;
7969;SDS011;4030;52.362;9.206;2023-10-13T01:19:09;10.48;;;9.38;;
7969;SDS011;4030;52.362;9.206;2023-10-13T01:21:37;10.10;;;9.20;;
7969;SDS011;4030;52.362;9.206;2023-10-13T01:24:06;10.65;;;9.75;;
7969;SDS011;4030;52.362;9.206;2023-10-13T01:26:36;10.27;;;9.38;;
7969;SDS011;4030;52.362;9.206;2023-10-13T01:29:07;10.23;;;9.32;;
7969;SDS011;4030;52.362;9.206;2023-10-13T01:31:37;10.38;;;9.40;;
7969;SDS011;4030;52.362;9.206;2023-10-13T01:34:10;10.43;;;9.50;;
7969;SDS011;4030;52.362;9.206;2023-10-13T01:36:55;10.07;;;9.18;;
7969;SDS011;4030;52.362;9.206;2023-10-13T01:39:21;10.52;;;9.50;;
7969;SDS011;4030;52.362;9.206;2023-10-13T01:41:53;10.10;;;9.20;;
7969;SDS011;4030;52.362;9.206;2023-10-13T01:44:21;10.32;;;9.38;;
7969;SDS011;4030;52.362;9.206;2023-10-13T01:46:48;9.90;;;9.00;;
7969;SDS011;4030;52.362;9.206;2023-10-13T01:49:13;10.30;;;9.32;;
7969;SDS011;4030;52.362;9.206;2023-10-13T01:51:42;9.73;;;8.82;;
7969;SDS011;4030;52.362;9.206;2023-10-13T01:54:08;9.98;;;9.07;;
7969;SDS011;4030;52.362;9.206;2023-10-13T01:56:38;10.35;;;9.35;;
7969;SDS011;4030;52.362;9.206;2023-10-13T01:59:08;10.48;;;9.50;;
7969;SDS011;4030;52.362;9.206;2023-10-13T02:01:37;9.98;;;9.18;;
7969;SDS011;4030;52.362;9.206;2023-10-13T02:04:05;10.15;;;9.25;;
7969;SDS011;4030;52.362;9.206;2023-10-13T02:06:32;9.82;;;8.85;;
7969;SDS011;4030;52.362;9.206;2023-10-13T02:09:01;9.77;;;8.93;;
7969;SDS011;4030;52.362;9.206;2023-10-13T02:11:40;9.73;;;8.93;;
7969;SDS011;4030;52.362;9.206;2023-10-13T02:14:10;9.20;;;8.48;;
7969;SDS011;4030;52.362;9.206;2023-10-13T02:16:37;9.60;;;8.75;;
7969;SDS011;4030;52.362;9.206;2023-10-13T02:19:06;9.48;;;8.68;;
7969;SDS011;4030;52.362;9.206;2023-10-13T02:21:40;8.88;;;8.18;;
7969;SDS011;4030;52.362;9.206;2023-10-13T02:24:08;9.80;;;8.90;;
7969;SDS011;4030;52.362;9.206;2023-10-13T02:26:44;9.30;;;8.35;;
7969;SDS011;4030;52.362;9.206;2023-10-13T02:29:10;9.73;;;8.90;;
7969;SDS011;4030;52.362;9.206;2023-10-13T02:31:39;9.00;;;8.30;;
7969;SDS011;4030;52.362;9.206;2023-10-13T02:34:07;9.02;;;8.23;;
7969;SDS011;4030;52.362;9.206;2023-10-13T02:36:34;9.05;;;8.25;;
7969;SDS011;4030;52.362;9.206;2023-10-13T02:39:04;9.57;;;8.77;;
7969;SDS011;4030;52.362;9.206;2023-10-13T02:41:33;8.90;;;8.20;;
7969;SDS011;4030;52.362;9.206;2023-10-13T02:44:03;8.77;;;7.88;;
7969;SDS011;4030;52.362;9.206;2023-10-13T02:46:35;8.57;;;7.88;;
7969;SDS011;4030;52.362;9.206;2023-10-13T02:49:02;8.82;;;8.10;;
7969;SDS011;4030;52.362;9.206;2023-10-13T02:51:38;8.30;;;7.53;;
7969;SDS011;4030;52.362;9.206;2023-10-13T02:54:05;8.70;;;8.00;;
7969;SDS011;4030;52.362;9.206;2023-10-13T02:56:43;7.95;;;7.25;;
7969;SDS011;4030;52.362;9.206;2023-10-13T02:59:19;8.40;;;7.70;;
7969;SDS011;4030;52.362;9.206;2023-10-13T03:01:59;8.00;;;7.20;;
7969;SDS011;4030;52.362;9.206;2023-10-13T03:04:42;8.18;;;7.38;;
7969;SDS011;4030;52.362;9.206;2023-10-13T03:07:27;7.80;;;7.00;;
7969;SDS011;4030;52.362;9.206;2023-10-13T03:09:56;7.78;;;7.10;;
7969;SDS011;4030;52.362;9.206;2023-10-13T03:12:25;8.05;;;7.15;;
7969;SDS011;4030;52.362;9.206;2023-10-13T03:14:57;7.47;;;6.80;;
7969;SDS011;4030;52.362;9.206;2023-10-13T03:17:37;7.30;;;6.70;;
7969;SDS011;4030;52.362;9.206;2023-10-13T03:20:08;7.15;;;6.50;;
7969;SDS011;4030;52.362;9.206;2023-10-13T03:22:41;7.70;;;6.90;;
7969;SDS011;4030;52.362;9.206;2023-10-13T03:25:10;6.88;;;6.28;;
7969;SDS011;4030;52.362;9.206;2023-10-13T03:27:43;7.10;;;6.50;;
7969;SDS011;4030;52.362;9.206;2023-10-13T03:30:18;7.45;;;6.50;;
7969;SDS011;4030;52.362;9.206;2023-10-13T03:32:46;7.20;;;6.60;;
7969;SDS011;4030;52.362;9.206;2023-10-13T03:35:19;7.13;;;6.22;;
7969;SDS011;4030;52.362;9.206;2023-10-13T03:38:02;5.97;;;5.47;;
7969;SDS011;4030;52.362;9.206;2023-10-13T03:40:29;6.70;;;6.10;;
7969;SDS011;4030;52.362;9.206;2023-10-13T03:42:55;6.82;;;6.18;;
7969;SDS011;4030;52.362;9.206;2023-10-13T03:45:30;6.35;;;5.80;;
7969;SDS011;4030;52.362;9.206;2023-10-13T03:48:16;7.03;;;5.80;;
7969;SDS011;4030;52.362;9.206;2023-10-13T03:50:49;5.32;;;4.90;;
7969;SDS011;4030;52.362;9.206;2023-10-13T03:53:28;6.03;;;5.53;;
7969;SDS011;4030;52.362;9.206;2023-10-13T03:55:58;6.28;;;5.68;;
7969;SDS011;4030;52.362;9.206;2023-10-13T03:58:40;6.13;;;5.63;;
7969;SDS011;4030;52.362;9.206;2023-10-13T04:01:13;6.10;;;5.15;;
7969;SDS011;4030;52.362;9.206;2023-10-13T04:03:42;6.43;;;5.53;;
7969;SDS011;4030;52.362;9.206;2023-10-13T04:06:29;5.60;;;5.10;;
7969;SDS011;4030;52.362;9.206;2023-10-13T04:09:15;6.32;;;5.65;;
7969;SDS011;4030;52.362;9.206;2023-10-13T04:11:54;5.97;;;5.38;;
7969;SDS011;4030;52.362;9.206;2023-10-13T04:14:32;6.07;;;5.30;;
7969;SDS011;4030;52.362;9.206;2023-10-13T04:17:13;6.80;;;4.88;;
7969;SDS011;4030;52.362;9.206;2023-10-13T04:19:43;5.95;;;5.35;;
7969;SDS011;4030;52.362;9.206;2023-10-13T04:22:28;6.47;;;5.57;;
7969;SDS011;4030;52.362;9.206;2023-10-13T04:25:14;6.07;;;5.47;;
7969;SDS011;4030;52.362;9.206;2023-10-13T04:28:04;6.20;;;4.90;;
7969;SDS011;4030;52.362;9.206;2023-10-13T04:30:41;6.55;;;5.18;;
7969;SDS011;4030;52.362;9.206;2023-10-13T04:33:20;6.28;;;5.68;;
7969;SDS011;4030;52.362;9.206;2023-10-13T04:38:53;5.82;;;5.22;;
7969;SDS011;4030;52.362;9.206;2023-10-13T04:41:23;5.57;;;5.18;;
7969;SDS011;4030;52.362;9.206;2023-10-13T04:43:57;5.50;;;5.00;;
7969;SDS011;4030;52.362;9.206;2023-10-13T04:46:46;6.10;;;5.40;;
7969;SDS011;4030;52.362;9.206;2023-10-13T04:49:11;5.65;;;5.15;;
7969;SDS011;4030;52.362;9.206;2023-10-13T04:51:56;6.95;;;5.45;;
7969;SDS011;4030;52.362;9.206;2023-10-13T04:54:27;5.25;;;4.85;;
7969;SDS011;4030;52.362;9.206;2023-10-13T04:57:09;5.65;;;5.07;;
7969;SDS011;4030;52.362;9.206;2023-10-13T04:59:50;5.47;;;5.00;;
7969;SDS011;4030;52.362;9.206;2023-10-13T05:02:36;6.13;;;4.90;;
7969;SDS011;4030;52.362;9.206;2023-10-13T05:05:04;6.00;;;5.40;;
7969;SDS011;4030;52.362;9.206;2023-10-13T05:07:40;5.35;;;4.85;;
7969;SDS011;4030;52.362;9.206;2023-10-13T05:10:25;5.43;;;4.93;;
7969;SDS011;4030;52.362;9.206;2023-10-13T05:13:09;5.40;;;4.90;;
7969;SDS011;4030;52.362;9.206;2023-10-13T05:15:53;5.22;;;4.80;;
7969;SDS011;4030;52.362;9.206;2023-10-13T05:18:37;6.78;;;4.90;;
7969;SDS011;4030;52.362;9.206;2023-10-13T05:21:21;5.20;;;4.70;;
7969;SDS011;4030;52.362;9.206;2023-10-13T05:24:06;4.93;;;4.30;;
7969;SDS011;4030;52.362;9.206;2023-10-13T05:26:51;5.55;;;4.93;;
7969;SDS011;4030;52.362;9.206;2023-10-13T05:29:43;6.07;;;5.10;;
7969;SDS011;4030;52.362;9.206;2023-10-13T05:32:29;5.60;;;4.90;;
7969;SDS011;4030;52.362;9.206;2023-10-13T05:35:14;5.70;;;5.20;;
7969;SDS011;4030;52.362;9.206;2023-10-13T05:37:59;5.47;;;4.95;;
7969;SDS011;4030;52.362;9.206;2023-10-13T05:40:53;5.93;;;5.13;;
7969;SDS011;4030;52.362;9.206;2023-10-13T05:43:40;5.53;;;5.13;;
7969;SDS011;4030;52.362;9.206;2023-10-13T05:46:25;5.05;;;4.65;;
7969;SDS011;4030;52.362;9.206;2023-10-13T05:48:51;5.75;;;5.25;;
7969;SDS011;4030;52.362;9.206;2023-10-13T05:51:26;5.32;;;4.68;;
7969;SDS011;4030;52.362;9.206;2023-10-13T05:54:12;5.80;;;4.72;;
7969;SDS011;4030;52.362;9.206;2023-10-13T05:56:42;5.28;;;4.78;;
7969;SDS011;4030;52.362;9.206;2023-10-13T05:59:28;5.05;;;4.65;;
7969;SDS011;4030;52.362;9.206;2023-10-13T06:02:17;6.20;;;4.80;;
7969;SDS011;4030;52.362;9.206;2023-10-13T06:05:03;5.75;;;4.57;;
7969;SDS011;4030;52.362;9.206;2023-10-13T06:07:49;5.50;;;4.75;;
7969;SDS011;4030;52.362;9.206;2023-10-13T06:10:36;7.03;;;4.97;;
7969;SDS011;4030;52.362;9.206;2023-10-13T06:13:21;4.95;;;4.43;;
7969;SDS011;4030;52.362;9.206;2023-10-13T06:16:15;5.15;;;4.68;;
7969;SDS011;4030;52.362;9.206;2023-10-13T06:19:01;5.38;;;4.88;;
7969;SDS011;4030;52.362;9.206;2023-10-13T06:21:45;4.85;;;4.22;;
7969;SDS011;4030;52.362;9.206;2023-10-13T06:24:30;5.18;;;4.20;;
7969;SDS011;4030;52.362;9.206;2023-10-13T06:27:15;4.50;;;4.10;;
7969;SDS011;4030;52.362;9.206;2023-10-13T06:30:00;4.45;;;4.03;;
7969;SDS011;4030;52.362;9.206;2023-10-13T06:32:29;4.55;;;3.70;;
7969;SDS011;4030;52.362;9.206;2023-10-13T06:34:57;4.00;;;3.55;;
7969;SDS011;4030;52.362;9.206;2023-10-13T06:37:23;4.50;;;3.30;;
7969;SDS011;4030;52.362;9.206;2023-10-13T06:39:51;3.67;;;3.10;;
7969;SDS011;4030;52.362;9.206;2023-10-13T06:42:38;3.78;;;3.33;;
7969;SDS011;4030;52.362;9.206;2023-10-13T06:45:07;3.40;;;3.10;;
7969;SDS011;4030;52.362;9.206;2023-10-13T06:47:35;3.70;;;3.40;;
7969;SDS011;4030;52.362;9.206;2023-10-13T06:50:10;3.50;;;3.20;;
7969;SDS011;4030;52.362;9.206;2023-10-13T06:52:45;3.40;;;3.10;;
7969;SDS011;4030;52.362;9.206;2023-10-13T06:55:14;4.00;;;3.10;;
7969;SDS011;4030;52.362;9.206;2023-10-13T06:57:56;3.40;;;3.10;;
7969;SDS011;4030;52.362;9.206;2023-10-13T07:00:25;4.30;;;2.97;;
7969;SDS011;4030;52.362;9.206;2023-10-13T07:02:59;3.40;;;2.90;;
7969;SDS011;4030;52.362;9.206;2023-10-13T07:05:39;4.15;;;3.30;;
7969;SDS011;4030;52.362;9.206;2023-10-13T07:08:08;3.83;;;2.95;;
7969;SDS011;4030;52.362;9.206;2023-10-13T07:10:39;2.88;;;2.67;;
7969;SDS011;4030;52.362;9.206;2023-10-13T07:13:33;2.88;;;2.67;;
7969;SDS011;4030;52.362;9.206;2023-10-13T07:16:03;3.85;;;3.05;;
7969;SDS011;4030;52.362;9.206;2023-10-13T07:18:38;3.10;;;2.80;;
7969;SDS011;4030;52.362;9.206;2023-10-13T07:21:18;3.60;;;2.80;;
7969;SDS011;4030;52.362;9.206;2023-10-13T07:23:56;2.92;;;2.70;;
7969;SDS011;4030;52.362;9.206;2023-10-13T07:26:35;3.10;;;2.80;;
7969;SDS011;4030;52.362;9.206;2023-10-13T07:29:10;3.00;;;2.70;;
7969;SDS011;4030;52.362;9.206;2023-10-13T07:31:37;2.97;;;2.47;;
7969;SDS011;4030;52.362;9.206;2023-10-13T07:34:04;3.25;;;2.65;;
7969;SDS011;4030;52.362;9.206;2023-10-13T07:36:37;4.05;;;2.70;;
7969;SDS011;4030;52.362;9.206;2023-10-13T07:39:05;3.70;;;2.70;;
7969;SDS011;4030;52.362;9.206;2023-10-13T07:41:48;3.30;;;2.40;;
7969;SDS011;4030;52.362;9.206;2023-10-13T07:44:19;3.15;;;2.38;;
7969;SDS011;4030;52.362;9.206;2023-10-13T07:46:49;2.88;;;2.58;;
7969;SDS011;4030;52.362;9.206;2023-10-13T07:49:31;4.03;;;2.38;;
7969;SDS011;4030;52.362;9.206;2023-10-13T07:52:01;2.78;;;2.45;;
7969;SDS011;4030;52.362;9.206;2023-10-13T07:54:49;2.58;;;2.10;;
7969;SDS011;4030;52.362;9.206;2023-10-13T07:57:35;2.90;;;2.55;;
7969;SDS011;4030;52.362;9.206;2023-10-13T08:00:17;3.42;;;2.22;;
7969;SDS011;4030;52.362;9.206;2023-10-13T08:03:05;2.72;;;2.40;;
7969;SDS011;4030;52.362;9.206;2023-10-13T08:05:43;2.42;;;2.22;;
7969;SDS011;4030;52.362;9.206;2023-10-13T08:08:30;2.95;;;2.40;;
7969;SDS011;4030;52.362;9.206;2023-10-13T08:11:09;3.47;;;2.30;;
7969;SDS011;4030;52.362;9.206;2023-10-13T08:13:48;3.72;;;2.40;;
7969;SDS011;4030;52.362;9.206;2023-10-13T08:16:19;4.53;;;2.45;;
7969;SDS011;4030;52.362;9.206;2023-10-13T08:18:49;3.38;;;2.28;;
7969;SDS011;4030;52.362;9.206;2023-10-13T08:21:18;2.63;;;2.28;;
7969;SDS011;4030;52.362;9.206;2023-10-13T08:23:56;4.47;;;2.55;;
7969;SDS011;4030;52.362;9.206;2023-10-13T08:26:24;2.30;;;2.10;;
7969;SDS011;4030;52.362;9.206;2023-10-13T08:29:12;2.95;;;2.30;;
7969;SDS011;4030;52.362;9.206;2023-10-13T08:31:43;2.97;;;2.38;;
7969;SDS011;4030;52.362;9.206;2023-10-13T08:34:29;4.35;;;2.53;;
7969;SDS011;4030;52.362;9.206;2023-10-13T08:37:07;4.25;;;2.70;;
7969;SDS011;4030;52.362;9.206;2023-10-13T08:39:46;4.28;;;2.85;;
7969;SDS011;4030;52.362;9.206;2023-10-13T08:47:50;3.38;;;2.40;;
7969;SDS011;4030;52.362;9.206;2023-10-13T08:50:32;2.97;;;2.40;;
7969;SDS011;4030;52.362;9.206;2023-10-13T08:53:15;3.70;;;2.50;;
7969;SDS011;4030;52.362;9.206;2023-10-13T08:58:37;4.15;;;2.38;;
7969;SDS011;4030;52.362;9.206;2023-10-13T09:01:28;2.70;;;2.15;;
7969;SDS011;4030;52.362;9.206;2023-10-13T09:04:14;3.42;;;2.10;;
7969;SDS011;4030;52.362;9.206;2023-10-13T09:12:20;3.65;;;2.38;;
7969;SDS011;4030;52.362;9.206;2023-10-13T09:14:59;3.10;;;2.30;;
7969;SDS011;4030;52.362;9.206;2023-10-13T09:17:46;2.60;;;2.20;;
7969;SDS011;4030;52.362;9.206;2023-10-13T09:20:17;3.10;;;2.03;;
7969;SDS011;4030;52.362;9.206;2023-10-13T09:23:11;3.58;;;2.15;;
7969;SDS011;4030;52.362;9.206;2023-10-13T09:25:50;3.35;;;2.30;;
7969;SDS011;4030;52.362;9.206;2023-10-13T09:28:23;3.10;;;2.13;;
7969;SDS011;4030;52.362;9.206;2023-10-13T09:30:56;3.55;;;2.10;;
7969;SDS011;4030;52.362;9.206;2023-10-13T09:33:28;4.25;;;2.33;;
7969;SDS011;4030;52.362;9.206;2023-10-13T09:35:58;3.08;;;1.98;;
7969;SDS011;4030;52.362;9.206;2023-10-13T09:38:26;3.58;;;2.40;;
7969;SDS011;4030;52.362;9.206;2023-10-13T09:40:53;3.25;;;1.98;;
7969;SDS011;4030;52.362;9.206;2023-10-13T09:43:22;2.70;;;1.95;;
7969;SDS011;4030;52.362;9.206;2023-10-13T09:45:50;4.65;;;2.20;;
7969;SDS011;4030;52.362;9.206;2023-10-13T09:48:41;3.78;;;2.60;;
7969;SDS011;4030;52.362;9.206;2023-10-13T09:51:18;4.13;;;2.50;;
7969;SDS011;4030;52.362;9.206;2023-10-13T09:53:55;4.43;;;2.63;;
7969;SDS011;4030;52.362;9.206;2023-10-13T09:56:45;3.45;;;2.40;;
7969;SDS011;4030;52.362;9.206;2023-10-13T09:59:21;4.88;;;2.90;;
7969;SDS011;4030;52.362;9.206;2023-10-13T10:01:51;6.18;;;2.70;;
7969;SDS011;4030;52.362;9.206;2023-10-13T10:04:23;4.63;;;2.65;;
7969;SDS011;4030;52.362;9.206;2023-10-13T10:09:31;5.00;;;2.70;;
7969;SDS011;4030;52.362;9.206;2023-10-13T10:17:55;6.97;;;3.22;;
7969;SDS011;4030;52.362;9.206;2023-10-13T10:20:34;4.93;;;2.72;;
7969;SDS011;4030;52.362;9.206;2023-10-13T10:23:09;6.88;;;2.70;;
7969;SDS011;4030;52.362;9.206;2023-10-13T10:25:47;7.03;;;2.83;;
7969;SDS011;4030;52.362;9.206;2023-10-13T10:28:16;5.55;;;2.78;;
7969;SDS011;4030;52.362;9.206;2023-10-13T10:30:44;5.88;;;2.90;;
7969;SDS011;4030;52.362;9.206;2023-10-13T10:33:10;4.90;;;3.00;;
7969;SDS011;4030;52.362;9.206;2023-10-13T10:35:47;7.40;;;3.15;;
7969;SDS011;4030;52.362;9.206;2023-10-13T10:38:24;7.80;;;3.35;;
7969;SDS011;4030;52.362;9.206;2023-10-13T10:40:54;6.63;;;2.90;;
7969;SDS011;4030;52.362;9.206;2023-10-13T10:43:28;6.13;;;3.10;;
7969;SDS011;4030;52.362;9.206;2023-10-13T10:46:25;7.05;;;3.00;;
7969;SDS011;4030;52.362;9.206;2023-10-13T10:48:53;7.65;;;2.85;;
7969;SDS011;4030;52.362;9.206;2023-10-13T10:51:26;7.95;;;3.15;;
7969;SDS011;4030;52.362;9.206;2023-10-13T10:53:59;7.13;;;3.00;;
7969;SDS011;4030;52.362;9.206;2023-10-13T10:56:37;4.32;;;2.47;;
7969;SDS011;4030;52.362;9.206;2023-10-13T10:59:06;9.80;;;3.38;;
7969;SDS011;4030;52.362;9.206;2023-10-13T11:01:42;7.82;;;3.55;;
7969;SDS011;4030;52.362;9.206;2023-10-13T11:04:13;10.48;;;3.63;;
7969;SDS011;4030;52.362;9.206;2023-10-13T11:06:46;6.88;;;3.30;;
7969;SDS011;4030;52.362;9.206;2023-10-13T11:09:14;6.53;;;3.33;;
7969;SDS011;4030;52.362;9.206;2023-10-13T11:11:52;5.97;;;3.10;;
7969;SDS011;4030;52.362;9.206;2023-10-13T11:14:20;5.40;;;3.30;;
7969;SDS011;4030;52.362;9.206;2023-10-13T11:16:48;6.82;;;3.17;;
7969;SDS011;4030;52.362;9.206;2023-10-13T11:19:38;5.50;;;3.08;;
7969;SDS011;4030;52.362;9.206;2023-10-13T11:22:12;8.68;;;3.45;;
7969;SDS011;4030;52.362;9.206;2023-10-13T11:24:57;7.53;;;3.90;;
7969;SDS011;4030;52.362;9.206;2023-10-13T11:27:31;8.95;;;3.75;;
7969;SDS011;4030;52.362;9.206;2023-10-13T11:30:16;7.43;;;3.45;;
7969;SDS011;4030;52.362;9.206;2023-10-13T11:35:31;7.80;;;3.72;;
7969;SDS011;4030;52.362;9.206;2023-10-13T11:38:16;7.78;;;3.70;;
7969;SDS011;4030;52.362;9.206;2023-10-13T11:40:51;12.52;;;4.13;;
7969;SDS011;4030;52.362;9.206;2023-10-13T11:43:49;15.65;;;3.95;;
7969;SDS011;4030;52.362;9.206;2023-10-13T11:46:26;17.48;;;4.00;;
7969;SDS011;4030;52.362;9.206;2023-10-13T11:49:04;5.30;;;3.28;;
7969;SDS011;4030;52.362;9.206;2023-10-13T11:51:41;8.07;;;3.42;;
7969;SDS011;4030;52.362;9.206;2023-10-13T11:54:17;6.95;;;4.07;;
7969;SDS011;4030;52.362;9.206;2023-10-13T11:56:45;11.73;;;3.65;;
7969;SDS011;4030;52.362;9.206;2023-10-13T11:59:11;7.90;;;3.55;;
7969;SDS011;4030;52.362;9.206;2023-10-13T12:01:47;8.32;;;3.83;;
7969;SDS011;4030;52.362;9.206;2023-10-13T12:04:33;6.65;;;3.78;;
7969;SDS011;4030;52.362;9.206;2023-10-13T12:07:05;10.02;;;4.28;;
7969;SDS011;4030;52.362;9.206;2023-10-13T12:09:50;9.88;;;3.47;;
7969;SDS011;4030;52.362;9.206;2023-10-13T12:12:16;8.90;;;3.97;;
7969;SDS011;4030;52.362;9.206;2023-10-13T12:14:42;8.40;;;3.78;;
7969;SDS011;4030;52.362;9.206;2023-10-13T12:17:17;10.10;;;3.65;;
7969;SDS011;4030;52.362;9.206;2023-10-13T12:19:51;8.75;;;4.10;;
7969;SDS011;4030;52.362;9.206;2023-10-13T12:22:17;6.82;;;3.65;;
7969;SDS011;4030;52.362;9.206;2023-10-13T12:24:53;8.82;;;3.85;;
7969;SDS011;4030;52.362;9.206;2023-10-13T12:27:20;8.43;;;3.90;;
7969;SDS011;4030;52.362;9.206;2023-10-13T12:29:52;6.82;;;4.03;;
7969;SDS011;4030;52.362;9.206;2023-10-13T12:32:18;10.70;;;4.05;;
7969;SDS011;4030;52.362;9.206;2023-10-13T12:34:50;9.02;;;3.58;;
7969;SDS011;4030;52.362;9.206;2023-10-13T12:37:25;9.60;;;4.07;;
7969;SDS011;4030;52.362;9.206;2023-10-13T12:40:05;10.30;;;4.30;;
7969;SDS011;4030;52.362;9.206;2023-10-13T12:43:02;7.43;;;3.47;;
7969;SDS011;4030;52.362;9.206;2023-10-13T12:45:48;8.20;;;3.67;;
7969;SDS011;4030;52.362;9.206;2023-10-13T12:48:34;8.20;;;3.72;;
7969;SDS011;4030;52.362;9.206;2023-10-13T12:51:20;9.93;;;4.20;;
7969;SDS011;4030;52.362;9.206;2023-10-13T12:53:55;10.43;;;3.95;;
7969;SDS011;4030;52.362;9.206;2023-10-13T12:56:29;11.93;;;4.05;;
7969;SDS011;4030;52.362;9.206;2023-10-13T12:58:55;9.25;;;3.70;;
7969;SDS011;4030;52.362;9.206;2023-10-13T13:01:22;8.90;;;3.67;;
7969;SDS011;4030;52.362;9.206;2023-10-13T13:03:50;10.23;;;3.92;;
7969;SDS011;4030;52.362;9.206;2023-10-13T13:06:22;12.02;;;4.00;;
7969;SDS011;4030;52.362;9.206;2023-10-13T13:08:54;7.30;;;3.72;;
7969;SDS011;4030;52.362;9.206;2023-10-13T13:11:25;11.85;;;4.13;;
7969;SDS011;4030;52.362;9.206;2023-10-13T13:13:54;9.68;;;4.22;;
7969;SDS011;4030;52.362;9.206;2023-10-13T13:16:20;7.20;;;3.58;;
7969;SDS011;4030;52.362;9.206;2023-10-13T13:18:52;8.35;;;3.30;;
7969;SDS011;4030;52.362;9.206;2023-10-13T13:21:20;4.97;;;3.03;;
7969;SDS011;4030;52.362;9.206;2023-10-13T13:23:49;6.40;;;3.28;;
7969;SDS011;4030;52.362;9.206;2023-10-13T13:26:15;6.50;;;3.05;;
7969;SDS011;4030;52.362;9.206;2023-10-13T13:28:42;6.80;;;3.40;;
7969;SDS011;4030;52.362;9.206;2023-10-13T13:31:08;9.80;;;3.60;;
7969;SDS011;4030;52.362;9.206;2023-10-13T13:33:37;5.00;;;3.17;;
7969;SDS011;4030;52.362;9.206;2023-10-13T13:36:06;5.13;;;3.08;;
7969;SDS011;4030;52.362;9.206;2023-10-13T13:38:38;6.72;;;3.78;;
7969;SDS011;4030;52.362;9.206;2023-10-13T13:41:05;8.55;;;3.30;;
7969;SDS011;4030;52.362;9.206;2023-10-13T13:43:47;7.47;;;3.40;;
7969;SDS011;4030;52.362;9.206;2023-10-13T13:46:21;8.38;;;3.40;;
7969;SDS011;4030;52.362;9.206;2023-10-13T13:49:06;7.03;;;3.55;;
7969;SDS011;4030;52.362;9.206;2023-10-13T13:51:33;5.43;;;3.72;;
7969;SDS011;4030;52.362;9.206;2023-10-13T13:54:03;7.47;;;3.83;;
7969;SDS011;4030;52.362;9.206;2023-10-13T13:56:31;7.63;;;3.50;;
7969;SDS011;4030;52.362;9.206;2023-10-13T13:59:03;9.63;;;4.07;;
7969;SDS011;4030;52.362;9.206;2023-10-13T14:01:39;9.18;;;4.00;;
7969;SDS011;4030;52.362;9.206;2023-10-13T14:04:05;8.52;;;3.80;;
7969;SDS011;4030;52.362;9.206;2023-10-13T14:06:32;9.52;;;4.45;;
7969;SDS011;4030;52.362;9.206;2023-10-13T14:08:59;9.88;;;4.00;;
7969;SDS011;4030;52.362;9.206;2023-10-13T14:11:29;6.32;;;3.65;;
7969;SDS011;4030;52.362;9.206;2023-10-13T14:16:45;8.00;;;3.83;;
7969;SDS011;4030;52.362;9.206;2023-10-13T14:19:13;7.22;;;4.15;;
7969;SDS011;4030;52.362;9.206;2023-10-13T14:21:44;8.73;;;3.42;;
7969;SDS011;4030;52.362;9.206;2023-10-13T14:24:18;7.75;;;3.97;;
7969;SDS011;4030;52.362;9.206;2023-10-13T14:26:52;7.35;;;3.65;;
7969;SDS011;4030;52.362;9.206;2023-10-13T14:29:22;12.75;;;4.22;;
7969;SDS011;4030;52.362;9.206;2023-10-13T14:31:51;8.60;;;3.67;;
7969;SDS011;4030;52.362;9.206;2023-10-13T14:34:17;9.23;;;3.97;;
7969;SDS011;4030;52.362;9.206;2023-10-13T14:36:43;7.32;;;3.90;;
7969;SDS011;4030;52.362;9.206;2023-10-13T14:39:13;8.30;;;3.97;;
7969;SDS011;4030;52.362;9.206;2023-10-13T14:41:39;10.88;;;3.97;;
7969;SDS011;4030;52.362;9.206;2023-10-13T14:44:05;8.85;;;4.28;;
7969;SDS011;4030;52.362;9.206;2023-10-13T14:46:32;10.05;;;4.20;;
7969;SDS011;4030;52.362;9.206;2023-10-13T14:49:04;8.18;;;4.22;;
7969;SDS011;4030;52.362;9.206;2023-10-13T14:51:30;7.20;;;4.03;;
7969;SDS011;4030;52.362;9.206;2023-10-13T14:53:57;8.70;;;4.07;;
7969;SDS011;4030;52.362;9.206;2023-10-13T14:56:28;7.05;;;4.03;;
7969;SDS011;4030;52.362;9.206;2023-10-13T14:58:54;6.80;;;4.13;;
7969;SDS011;4030;52.362;9.206;2023-10-13T15:01:20;8.32;;;3.55;;
7969;SDS011;4030;52.362;9.206;2023-10-13T15:03:50;7.78;;;4.32;;
7969;SDS011;4030;52.362;9.206;2023-10-13T15:06:24;8.23;;;4.63;;
7969;SDS011;4030;52.362;9.206;2023-10-13T15:08:54;11.32;;;4.18;;
7969;SDS011;4030;52.362;9.206;2023-10-13T15:11:22;7.97;;;4.30;;
7969;SDS011;4030;52.362;9.206;2023-10-13T15:14:01;8.90;;;4.40;;
7969;SDS011;4030;52.362;9.206;2023-10-13T15:16:28;10.43;;;4.95;;
7969;SDS011;4030;52.362;9.206;2023-10-13T15:18:54;10.18;;;4.60;;
7969;SDS011;4030;52.362;9.206;2023-10-13T15:21:24;9.30;;;5.00;;
7969;SDS011;4030;52.362;9.206;2023-10-13T15:23:53;7.03;;;4.57;;
7969;SDS011;4030;52.362;9.206;2023-10-13T15:26:24;8.68;;;4.80;;
7969;SDS011;4030;52.362;9.206;2023-10-13T15:28:50;10.32;;;5.03;;
7969;SDS011;4030;52.362;9.206;2023-10-13T15:31:21;11.02;;;4.47;;
7969;SDS011;4030;52.362;9.206;2023-10-13T15:34:08;10.70;;;5.03;;
7969;SDS011;4030;52.362;9.206;2023-10-13T15:36:40;10.25;;;5.15;;
7969;SDS011;4030;52.362;9.206;2023-10-13T15:39:11;6.50;;;4.65;;
7969;SDS011;4030;52.362;9.206;2023-10-13T15:41:40;7.15;;;4.82;;
7969;SDS011;4030;52.362;9.206;2023-10-13T15:44:10;11.88;;;5.35;;
7969;SDS011;4030;52.362;9.206;2023-10-13T15:46:38;7.72;;;4.65;;
7969;SDS011;4030;52.362;9.206;2023-10-13T15:49:04;10.48;;;5.05;;
7969;SDS011;4030;52.362;9.206;2023-10-13T15:51:31;13.27;;;5.70;;
7969;SDS011;4030;52.362;9.206;2023-10-13T15:54:03;7.63;;;4.78;;
7969;SDS011;4030;52.362;9.206;2023-10-13T15:56:30;8.38;;;4.55;;
7969;SDS011;4030;52.362;9.206;2023-10-13T15:59:00;11.32;;;5.15;;
7969;SDS011;4030;52.362;9.206;2023-10-13T16:01:26;9.88;;;4.57;;
7969;SDS011;4030;52.362;9.206;2023-10-13T16:03:58;8.10;;;4.60;;
7969;SDS011;4030;52.362;9.206;2023-10-13T16:06:24;10.63;;;4.68;;
7969;SDS011;4030;52.362;9.206;2023-10-13T16:08:51;10.25;;;4.65;;
7969;SDS011;4030;52.362;9.206;2023-10-13T16:11:17;8.57;;;4.50;;
7969;SDS011;4030;52.362;9.206;2023-10-13T16:13:44;11.52;;;4.55;;
7969;SDS011;4030;52.362;9.206;2023-10-13T16:16:17;11.00;;;5.10;;
7969;SDS011;4030;52.362;9.206;2023-10-13T16:18:44;10.00;;;4.85;;
7969;SDS011;4030;52.362;9.206;2023-10-13T16:21:12;8.50;;;4.43;;
7969;SDS011;4030;52.362;9.206;2023-10-13T16:23:39;10.23;;;4.63;;
7969;SDS011;4030;52.362;9.206;2023-10-13T16:26:16;6.65;;;4.30;;
7969;SDS011;4030;52.362;9.206;2023-10-13T16:28:48;7.38;;;3.90;;
7969;SDS011;4030;52.362;9.206;2023-10-13T16:31:18;8.20;;;4.65;;